createdAt,value
2023-05-21T00:00:04.714Z,173.48
2023-05-21T00:01:04.730Z,180.36
2023-05-21T00:02:04.739Z,203.75
2023-05-21T00:03:04.813Z,226.28
2023-05-21T00:04:05.074Z,240.45
2023-05-21T00:05:04.834Z,248.47
2023-05-21T00:06:04.906Z,256.58
2023-05-21T00:07:04.881Z,248.72
2023-05-21T00:08:04.931Z,247.20
2023-05-21T00:09:04.983Z,245.56
2023-05-21T00:10:05.047Z,237.63
2023-05-21T00:11:05.109Z,221.01
2023-05-21T00:12:05.125Z,210.67
2023-05-21T00:13:05.148Z,195.61
2023-05-21T00:14:05.148Z,196.72
2023-05-21T00:15:05.252Z,193.28
2023-05-21T00:16:05.260Z,191.97
2023-05-21T00:17:05.232Z,197.42
2023-05-21T00:18:05.338Z,207.25
2023-05-21T00:19:05.382Z,211.18
2023-05-21T00:20:05.373Z,213.22
2023-05-21T00:21:05.369Z,215.30
2023-05-21T00:22:05.420Z,216.37
2023-05-21T00:23:05.432Z,218.41
2023-05-21T00:24:05.445Z,220.11
2023-05-21T00:25:05.434Z,229.78
2023-05-21T00:26:05.489Z,238.98
2023-05-21T00:27:05.533Z,248.31
2023-05-21T00:28:05.526Z,250.20
2023-05-21T00:29:05.541Z,247.33
2023-05-21T00:30:05.616Z,250.53
2023-05-21T00:31:05.601Z,250.00
2023-05-21T00:32:05.746Z,251.33
2023-05-21T00:33:05.736Z,249.79
2023-05-21T00:34:05.759Z,242.04
2023-05-21T00:35:05.802Z,239.22
2023-05-21T00:36:05.879Z,238.40
2023-05-21T00:37:05.896Z,234.78
2023-05-21T00:38:05.890Z,227.45
2023-05-21T00:39:05.887Z,223.51
2023-05-21T00:40:05.950Z,220.04
2023-05-21T00:41:05.998Z,213.95
2023-05-21T00:42:06.019Z,215.05
2023-05-21T00:43:06.060Z,216.44
2023-05-21T00:44:06.085Z,220.93
2023-05-21T00:45:06.136Z,222.57
2023-05-21T00:46:06.189Z,227.07
2023-05-21T00:47:06.213Z,233.51
2023-05-21T00:48:06.319Z,237.65
2023-05-21T00:49:06.313Z,236.49
2023-05-21T00:50:06.354Z,239.21
2023-05-21T00:51:06.377Z,236.14
2023-05-21T00:52:06.431Z,234.67
2023-05-21T00:53:06.431Z,231.99
2023-05-21T00:54:06.455Z,228.62
2023-05-21T00:55:06.516Z,224.77
2023-05-21T00:56:06.545Z,217.58
2023-05-21T00:57:06.555Z,213.48
2023-05-21T00:58:06.647Z,208.31
2023-05-21T00:59:06.681Z,212.71
2023-05-21T01:00:06.677Z,222.46
2023-05-21T01:01:06.797Z,236.88
2023-05-21T01:02:06.755Z,224.27
2023-05-21T01:03:06.779Z,201.14
2023-05-21T01:04:06.763Z,205.51
2023-05-21T01:05:06.803Z,208.24
2023-05-21T01:06:06.854Z,198.82
2023-05-21T01:07:06.858Z,204.16
2023-05-21T01:08:06.850Z,224.36
2023-05-21T01:09:06.923Z,239.12
2023-05-21T01:10:06.927Z,249.26
2023-05-21T01:11:06.968Z,254.20
2023-05-21T01:12:07.015Z,251.55
2023-05-21T01:13:07.027Z,244.91
2023-05-21T01:14:07.141Z,243.78
2023-05-21T01:15:07.143Z,246.11
2023-05-21T01:16:07.168Z,250.00
2023-05-21T01:17:07.283Z,250.00
2023-05-21T01:18:07.406Z,249.78
2023-05-21T01:19:07.342Z,250.00
2023-05-21T01:20:09.220Z,250.40
2023-05-21T01:21:07.300Z,250.07
2023-05-21T01:22:07.326Z,249.56
2023-05-21T01:23:07.357Z,245.73
2023-05-21T01:24:07.425Z,245.02
2023-05-21T01:25:07.433Z,247.93
2023-05-21T01:26:07.493Z,250.00
2023-05-21T01:27:07.560Z,247.16
2023-05-21T01:28:07.574Z,250.00
2023-05-21T01:29:07.585Z,251.86
2023-05-21T01:30:07.621Z,250.00
2023-05-21T01:31:07.664Z,250.00
2023-05-21T01:32:07.706Z,250.07
2023-05-21T01:33:07.817Z,251.41
2023-05-21T01:34:07.809Z,251.82
2023-05-21T01:35:07.776Z,247.86
2023-05-21T01:36:07.826Z,240.54
2023-05-21T01:37:07.869Z,244.32
2023-05-21T01:38:07.956Z,254.71
2023-05-21T01:39:07.987Z,258.56
2023-05-21T01:40:08.045Z,259.19
2023-05-21T01:41:08.046Z,258.78
2023-05-21T01:42:08.042Z,253.51
2023-05-21T01:43:08.093Z,250.90
2023-05-21T01:44:08.106Z,252.17
2023-05-21T01:45:08.162Z,251.23
2023-05-21T01:46:08.217Z,247.10
2023-05-21T01:47:08.176Z,242.41
2023-05-21T01:48:08.210Z,235.36
2023-05-21T01:49:08.250Z,232.53
2023-05-21T01:50:08.229Z,232.49
2023-05-21T01:51:08.263Z,231.94
2023-05-21T01:52:08.322Z,229.43
2023-05-21T01:53:08.358Z,228.37
2023-05-21T01:54:08.375Z,225.79
2023-05-21T01:55:08.430Z,223.48
2023-05-21T01:56:08.476Z,220.23
2023-05-21T01:57:08.540Z,212.99
2023-05-21T01:58:08.561Z,206.26
2023-05-21T01:59:08.603Z,202.50
2023-05-21T02:00:08.667Z,202.78
2023-05-21T02:01:08.720Z,204.85
2023-05-21T02:02:08.838Z,208.73
2023-05-21T02:03:09.047Z,214.68
2023-05-21T02:04:08.858Z,219.93
2023-05-21T02:05:08.864Z,222.25
2023-05-21T02:06:08.896Z,223.13
2023-05-21T02:07:08.914Z,224.89
2023-05-21T02:08:08.916Z,227.23
2023-05-21T02:09:08.944Z,227.86
2023-05-21T02:10:08.955Z,228.00
2023-05-21T02:11:09.036Z,227.38
2023-05-21T02:12:08.992Z,227.96
2023-05-21T02:13:09.022Z,229.32
2023-05-21T02:14:09.058Z,231.63
2023-05-21T02:15:09.058Z,228.79
2023-05-21T02:16:09.109Z,228.53
2023-05-21T02:17:09.123Z,228.86
2023-05-21T02:18:09.151Z,230.31
2023-05-21T02:19:09.195Z,230.18
2023-05-21T02:20:09.118Z,229.70
2023-05-21T02:21:09.224Z,233.29
2023-05-21T02:22:09.142Z,233.34
2023-05-21T02:23:09.178Z,233.08
2023-05-21T02:24:09.164Z,236.98
2023-05-21T02:25:09.212Z,239.46
2023-05-21T02:26:09.238Z,238.20
2023-05-21T02:27:09.264Z,235.90
2023-05-21T02:28:09.293Z,234.18
2023-05-21T02:29:09.336Z,234.74
2023-05-21T02:30:09.393Z,239.87
2023-05-21T02:31:09.396Z,243.04
2023-05-21T02:32:09.448Z,243.44
2023-05-21T02:33:09.562Z,242.98
2023-05-21T02:34:09.624Z,240.55
2023-05-21T02:35:09.526Z,238.88
2023-05-21T02:36:09.558Z,237.15
2023-05-21T02:37:09.581Z,236.48
2023-05-21T02:38:09.600Z,237.29
2023-05-21T02:39:09.604Z,240.73
2023-05-21T02:40:09.627Z,244.45
2023-05-21T02:41:09.663Z,243.57
2023-05-21T02:42:09.690Z,240.16
2023-05-21T02:43:09.718Z,234.77
2023-05-21T02:44:09.760Z,235.25
2023-05-21T02:45:09.822Z,235.27
2023-05-21T02:46:09.932Z,234.95
2023-05-21T02:47:09.882Z,238.74
2023-05-21T02:48:10.021Z,241.13
2023-05-21T02:49:10.000Z,243.28
2023-05-21T02:50:09.984Z,244.60
2023-05-21T02:51:10.016Z,241.08
2023-05-21T02:52:09.990Z,241.40
2023-05-21T02:53:10.004Z,242.89
2023-05-21T02:54:09.987Z,245.26
2023-05-21T02:55:10.080Z,246.21
2023-05-21T02:56:10.067Z,247.08
2023-05-21T02:57:10.085Z,246.53
2023-05-21T02:58:10.129Z,248.24
2023-05-21T02:59:10.164Z,247.84
2023-05-21T03:00:10.217Z,244.49
2023-05-21T03:01:10.307Z,237.01
2023-05-21T03:02:10.300Z,240.52
2023-05-21T03:03:10.311Z,243.84
2023-05-21T03:04:10.295Z,246.60
2023-05-21T03:05:10.357Z,250.96
2023-05-21T03:06:10.342Z,251.25
2023-05-21T03:07:10.367Z,249.89
2023-05-21T03:08:10.424Z,247.59
2023-05-21T03:09:10.432Z,249.82
2023-05-21T03:10:10.488Z,253.55
2023-05-21T03:11:10.530Z,257.43
2023-05-21T03:12:10.564Z,260.19
2023-05-21T03:13:10.631Z,262.66
2023-05-21T03:14:10.670Z,261.03
2023-05-21T03:15:10.689Z,253.37
2023-05-21T03:16:10.730Z,248.49
2023-05-21T03:17:10.755Z,241.97
2023-05-21T03:18:10.876Z,236.58
2023-05-21T03:19:10.933Z,240.93
2023-05-21T03:20:10.924Z,243.35
2023-05-21T03:21:10.963Z,244.23
2023-05-21T03:22:11.016Z,242.51
2023-05-21T03:23:11.087Z,239.68
2023-05-21T03:24:11.113Z,238.20
2023-05-21T03:25:11.152Z,240.31
2023-05-21T03:26:11.143Z,238.57
2023-05-21T03:27:11.204Z,233.74
2023-05-21T03:28:11.246Z,226.64
2023-05-21T03:29:11.270Z,219.86
2023-05-21T03:30:11.314Z,220.61
2023-05-21T03:31:11.290Z,224.70
2023-05-21T03:32:11.393Z,232.73
2023-05-21T03:33:11.431Z,236.20
2023-05-21T03:34:11.362Z,233.70
2023-05-21T03:35:11.368Z,233.84
2023-05-21T03:36:11.399Z,236.08
2023-05-21T03:37:11.479Z,229.01
2023-05-21T03:38:11.481Z,229.89
2023-05-21T03:39:11.511Z,237.11
2023-05-21T03:40:11.507Z,238.70
2023-05-21T03:41:11.591Z,238.28
2023-05-21T03:42:11.650Z,233.61
2023-05-21T03:43:11.601Z,232.47
2023-05-21T03:44:11.660Z,234.42
2023-05-21T03:45:11.702Z,239.07
2023-05-21T03:46:11.771Z,238.40
2023-05-21T03:47:11.786Z,238.93
2023-05-21T03:48:11.844Z,241.17
2023-05-21T03:49:11.855Z,239.83
2023-05-21T03:50:11.884Z,240.67
2023-05-21T03:51:11.927Z,243.22
2023-05-21T03:52:11.910Z,246.64
2023-05-21T03:53:11.973Z,249.29
2023-05-21T03:54:11.967Z,246.03
2023-05-21T03:55:12.049Z,243.15
2023-05-21T03:56:12.052Z,241.91
2023-05-21T03:57:12.085Z,241.01
2023-05-21T03:58:12.152Z,241.38
2023-05-21T03:59:12.139Z,242.07
2023-05-21T04:00:12.205Z,241.89
2023-05-21T04:01:12.201Z,242.78
2023-05-21T04:02:12.226Z,238.54
2023-05-21T04:03:12.460Z,237.06
2023-05-21T04:04:12.396Z,240.89
2023-05-21T04:05:12.332Z,237.24
2023-05-21T04:06:12.334Z,236.13
2023-05-21T04:07:12.328Z,233.91
2023-05-21T04:08:12.339Z,231.80
2023-05-21T04:09:12.369Z,231.05
2023-05-21T04:10:12.368Z,231.47
2023-05-21T04:11:12.395Z,232.32
2023-05-21T04:12:12.442Z,230.14
2023-05-21T04:13:12.504Z,228.43
2023-05-21T04:14:12.479Z,230.07
2023-05-21T04:15:12.499Z,230.69
2023-05-21T04:16:12.596Z,229.74
2023-05-21T04:17:12.573Z,226.68
2023-05-21T04:18:12.638Z,226.30
2023-05-21T04:19:12.747Z,230.72
2023-05-21T04:20:12.720Z,238.61
2023-05-21T04:21:12.778Z,243.45
2023-05-21T04:22:12.826Z,243.67
2023-05-21T04:23:12.890Z,242.43
2023-05-21T04:24:12.905Z,241.98
2023-05-21T04:25:12.963Z,241.14
2023-05-21T04:26:13.010Z,239.33
2023-05-21T04:27:13.091Z,235.32
2023-05-21T04:28:13.116Z,234.53
2023-05-21T04:29:13.129Z,233.17
2023-05-21T04:30:13.169Z,229.47
2023-05-21T04:31:13.251Z,229.73
2023-05-21T04:32:13.250Z,229.16
2023-05-21T04:33:13.281Z,230.61
2023-05-21T04:34:13.327Z,229.49
2023-05-21T04:35:13.334Z,226.45
2023-05-21T04:36:13.385Z,226.39
2023-05-21T04:37:13.397Z,227.34
2023-05-21T04:38:13.457Z,227.78
2023-05-21T04:39:13.460Z,227.96
2023-05-21T04:40:13.451Z,228.20
2023-05-21T04:41:13.460Z,226.65
2023-05-21T04:42:13.504Z,226.65
2023-05-21T04:43:13.531Z,226.68
2023-05-21T04:44:13.525Z,226.31
2023-05-21T04:45:13.621Z,224.13
2023-05-21T04:46:13.633Z,224.72
2023-05-21T04:47:13.664Z,228.22
2023-05-21T04:48:13.657Z,228.52
2023-05-21T04:49:13.697Z,228.24
2023-05-21T04:50:13.696Z,229.56
2023-05-21T04:51:13.733Z,231.06
2023-05-21T04:52:13.710Z,230.24
2023-05-21T04:53:13.774Z,224.52
2023-05-21T04:54:13.764Z,221.95
2023-05-21T04:55:13.790Z,220.17
2023-05-21T04:56:13.873Z,218.68
2023-05-21T04:57:13.897Z,216.77
2023-05-21T04:58:13.881Z,216.74
2023-05-21T04:59:13.920Z,217.36
2023-05-21T05:00:13.955Z,217.43
2023-05-21T05:01:13.993Z,215.48
2023-05-21T05:02:14.046Z,214.60
2023-05-21T05:03:14.300Z,214.37
2023-05-21T05:04:14.130Z,213.85
2023-05-21T05:05:14.089Z,209.40
2023-05-21T05:06:14.138Z,206.19
2023-05-21T05:07:14.293Z,205.99
2023-05-21T05:08:15.974Z,207.02
2023-05-21T05:09:14.236Z,210.13
2023-05-21T05:10:14.232Z,211.58
2023-05-21T05:11:14.245Z,215.27
2023-05-21T05:12:14.331Z,219.02
2023-05-21T05:13:14.316Z,218.38
2023-05-21T05:14:14.345Z,214.98
2023-05-21T05:15:14.336Z,208.92
2023-05-21T05:16:14.367Z,209.24
2023-05-21T05:17:14.377Z,216.87
2023-05-21T05:18:14.384Z,221.65
2023-05-21T05:19:14.468Z,220.24
2023-05-21T05:20:14.491Z,219.08
2023-05-21T05:21:14.505Z,218.71
2023-05-21T05:22:14.539Z,220.56
2023-05-21T05:23:14.575Z,218.73
2023-05-21T05:24:14.594Z,216.66
2023-05-21T05:25:14.613Z,211.44
2023-05-21T05:26:14.678Z,206.62
2023-05-21T05:27:14.700Z,205.36
2023-05-21T05:28:14.749Z,207.43
2023-05-21T05:29:14.792Z,214.69
2023-05-21T05:30:14.814Z,216.08
2023-05-21T05:31:14.905Z,206.84
2023-05-21T05:32:14.907Z,205.54
2023-05-21T05:33:14.896Z,205.71
2023-05-21T05:34:14.895Z,200.64
2023-05-21T05:35:14.940Z,200.46
2023-05-21T05:36:14.979Z,200.21
2023-05-21T05:37:14.997Z,201.67
2023-05-21T05:38:15.008Z,198.50
2023-05-21T05:39:15.015Z,198.72
2023-05-21T05:40:15.067Z,198.87
2023-05-21T05:41:15.097Z,198.06
2023-05-21T05:42:15.109Z,196.11
2023-05-21T05:43:15.157Z,187.89
2023-05-21T05:44:15.235Z,188.57
2023-05-21T05:45:15.251Z,186.30
2023-05-21T05:46:15.383Z,185.66
2023-05-21T05:47:15.320Z,187.06
2023-05-21T05:48:15.326Z,190.03
2023-05-21T05:49:15.346Z,190.91
2023-05-21T05:50:15.367Z,191.91
2023-05-21T05:51:15.409Z,195.96
2023-05-21T05:52:15.404Z,197.04
2023-05-21T05:53:15.437Z,199.24
2023-05-21T05:54:15.432Z,198.88
2023-05-21T05:55:15.467Z,196.94
2023-05-21T05:56:15.483Z,195.32
2023-05-21T05:57:15.535Z,192.63
2023-05-21T05:58:15.584Z,192.63
2023-05-21T05:59:15.643Z,194.91
2023-05-21T06:00:15.636Z,194.57
2023-05-21T06:01:15.718Z,191.23
2023-05-21T06:02:15.739Z,180.64
2023-05-21T06:03:15.887Z,176.09
2023-05-21T06:04:15.788Z,174.67
2023-05-21T06:05:15.867Z,169.75
2023-05-21T06:06:15.904Z,167.28
2023-05-21T06:07:15.847Z,165.26
2023-05-21T06:08:15.889Z,161.89
2023-05-21T06:09:15.925Z,158.85
2023-05-21T06:10:15.979Z,152.49
2023-05-21T06:11:16.027Z,152.13
2023-05-21T06:12:16.036Z,151.78
2023-05-21T06:13:16.090Z,153.79
2023-05-21T06:14:16.111Z,153.24
2023-05-21T06:15:16.120Z,154.19
2023-05-21T06:16:16.211Z,154.53
2023-05-21T06:17:16.155Z,155.58
2023-05-21T06:18:16.147Z,157.91
2023-05-21T06:19:16.239Z,159.62
2023-05-21T06:20:16.253Z,161.84
2023-05-21T06:21:16.260Z,163.17
2023-05-21T06:22:16.295Z,167.24
2023-05-21T06:23:16.314Z,168.27
2023-05-21T06:24:16.323Z,169.54
2023-05-21T06:25:16.344Z,172.84
2023-05-21T06:26:16.334Z,173.51
2023-05-21T06:27:16.379Z,174.41
2023-05-21T06:28:16.429Z,176.16
2023-05-21T06:29:16.454Z,179.09
2023-05-21T06:30:16.494Z,179.79
2023-05-21T06:31:16.526Z,179.54
2023-05-21T06:32:16.582Z,179.02
2023-05-21T06:33:16.626Z,180.89
2023-05-21T06:34:16.644Z,183.45
2023-05-21T06:35:16.669Z,182.24
2023-05-21T06:36:16.712Z,183.76
2023-05-21T06:37:16.719Z,184.76
2023-05-21T06:38:16.732Z,185.18
2023-05-21T06:39:16.815Z,187.35
2023-05-21T06:40:16.808Z,186.83
2023-05-21T06:41:16.820Z,182.98
2023-05-21T06:42:16.856Z,181.66
2023-05-21T06:43:16.898Z,178.97
2023-05-21T06:44:16.910Z,179.33
2023-05-21T06:45:16.940Z,179.96
2023-05-21T06:46:17.008Z,177.99
2023-05-21T06:47:17.025Z,174.65
2023-05-21T06:48:17.039Z,171.88
2023-05-21T06:49:17.047Z,170.54
2023-05-21T06:50:17.079Z,172.52
2023-05-21T06:51:17.181Z,172.72
2023-05-21T06:52:17.165Z,173.99
2023-05-21T06:53:17.185Z,175.79
2023-05-21T06:54:17.201Z,169.62
2023-05-21T06:55:17.289Z,163.90
2023-05-21T06:56:17.297Z,164.60
2023-05-21T06:57:17.336Z,166.30
2023-05-21T06:58:17.336Z,168.21
2023-05-21T06:59:17.407Z,163.81
2023-05-21T07:00:17.371Z,167.24
2023-05-21T07:01:17.462Z,170.67
2023-05-21T07:02:17.534Z,176.31
2023-05-21T07:03:18.232Z,173.61
2023-05-21T07:04:17.501Z,169.22
2023-05-21T07:05:17.544Z,163.59
2023-05-21T07:06:17.553Z,162.48
2023-05-21T07:07:17.607Z,160.85
2023-05-21T07:08:17.609Z,157.44
2023-05-21T07:09:17.635Z,157.72
2023-05-21T07:10:17.687Z,155.58
2023-05-21T07:11:17.702Z,153.93
2023-05-21T07:12:17.723Z,152.79
2023-05-21T07:13:17.756Z,153.68
2023-05-21T07:14:17.758Z,154.93
2023-05-21T07:15:17.808Z,154.30
2023-05-21T07:16:17.917Z,154.40
2023-05-21T07:17:17.821Z,153.44
2023-05-21T07:18:17.888Z,145.29
2023-05-21T07:19:17.948Z,150.66
2023-05-21T07:20:17.949Z,154.94
2023-05-21T07:21:18.003Z,156.00
2023-05-21T07:22:18.007Z,157.79
2023-05-21T07:23:18.074Z,160.38
2023-05-21T07:24:18.075Z,165.84
2023-05-21T07:25:18.111Z,161.55
2023-05-21T07:26:18.133Z,158.31
2023-05-21T07:27:25.337Z,155.05
2023-05-21T07:28:19.157Z,151.96
2023-05-21T07:29:18.557Z,149.82
2023-05-21T07:30:18.145Z,147.28
2023-05-21T07:31:18.141Z,147.06
2023-05-21T07:32:18.155Z,147.02
2023-05-21T07:33:18.120Z,145.02
2023-05-21T07:34:18.146Z,144.07
2023-05-21T07:35:18.085Z,146.03
2023-05-21T07:36:18.101Z,148.52
2023-05-21T07:37:18.092Z,147.97
2023-05-21T07:38:18.087Z,147.44
2023-05-21T07:39:18.069Z,140.99
2023-05-21T07:40:18.062Z,137.26
2023-05-21T07:41:18.838Z,135.43
2023-05-21T07:42:18.176Z,130.81
2023-05-21T07:43:18.121Z,128.05
2023-05-21T07:44:18.143Z,126.86
2023-05-21T07:45:18.171Z,123.90
2023-05-21T07:46:18.195Z,121.58
2023-05-21T07:47:18.207Z,120.31
2023-05-21T07:48:18.269Z,120.13
2023-05-21T07:49:18.256Z,122.55
2023-05-21T07:50:18.301Z,123.49
2023-05-21T07:51:18.297Z,126.46
2023-05-21T07:52:18.363Z,123.42
2023-05-21T07:53:18.401Z,120.70
2023-05-21T07:54:18.423Z,119.24
2023-05-21T07:55:18.451Z,116.72
2023-05-21T07:56:18.489Z,112.79
2023-05-21T07:57:18.497Z,109.27
2023-05-21T07:58:18.541Z,105.94
2023-05-21T07:59:18.555Z,104.84
2023-05-21T08:00:18.588Z,105.53
2023-05-21T08:01:18.614Z,106.26
2023-05-21T08:02:18.748Z,106.89
2023-05-21T08:03:18.793Z,109.21
2023-05-21T08:04:18.881Z,114.63
2023-05-21T08:05:18.886Z,118.95
2023-05-21T08:06:18.863Z,117.33
2023-05-21T08:07:18.830Z,114.42
2023-05-21T08:08:18.868Z,111.20
2023-05-21T08:09:18.906Z,113.64
2023-05-21T08:10:19.516Z,115.18
2023-05-21T08:11:18.992Z,118.49
2023-05-21T08:12:19.028Z,113.58
2023-05-21T08:13:19.079Z,108.63
2023-05-21T08:14:19.105Z,103.41
2023-05-21T08:15:19.170Z,93.07
2023-05-21T08:16:19.202Z,88.80
2023-05-21T08:17:19.251Z,90.74
2023-05-21T08:18:19.296Z,92.72
2023-05-21T08:19:19.419Z,84.38
2023-05-21T08:20:19.361Z,79.46
2023-05-21T08:21:19.391Z,80.56
2023-05-21T08:22:19.432Z,84.11
2023-05-21T08:23:19.476Z,82.28
2023-05-21T08:24:19.505Z,79.83
2023-05-21T08:25:19.540Z,78.99
2023-05-21T08:26:19.560Z,78.71
2023-05-21T08:27:19.606Z,81.52
2023-05-21T08:28:19.657Z,86.14
2023-05-21T08:29:19.662Z,86.55
2023-05-21T08:30:19.674Z,86.93
2023-05-21T08:31:19.728Z,84.33
2023-05-21T08:32:19.755Z,83.34
2023-05-21T08:33:21.377Z,75.25
2023-05-21T08:34:19.764Z,68.94
2023-05-21T08:35:19.766Z,66.35
2023-05-21T08:36:19.762Z,62.72
2023-05-21T08:37:19.826Z,59.10
2023-05-21T08:38:19.872Z,54.76
2023-05-21T08:39:19.879Z,54.63
2023-05-21T08:40:19.896Z,53.13
2023-05-21T08:41:19.930Z,53.61
2023-05-21T08:42:32.933Z,55.86
2023-05-21T08:43:20.970Z,56.03
2023-05-21T08:44:19.928Z,56.95
2023-05-21T08:45:19.923Z,57.58
2023-05-21T08:46:19.972Z,58.07
2023-05-21T08:47:19.922Z,60.75
2023-05-21T08:48:19.942Z,59.67
2023-05-21T08:49:19.890Z,54.98
2023-05-21T08:50:19.912Z,53.23
2023-05-21T08:51:19.894Z,57.72
2023-05-21T08:52:19.862Z,62.02
2023-05-21T08:53:28.111Z,61.20
2023-05-21T08:54:20.924Z,57.26
2023-05-21T08:55:19.889Z,51.96
2023-05-21T08:56:19.893Z,46.15
2023-05-21T08:57:19.875Z,45.81
2023-05-21T08:58:19.826Z,47.37
2023-05-21T08:59:19.842Z,52.05
2023-05-21T09:00:19.854Z,41.78
2023-05-21T09:01:19.969Z,39.74
2023-05-21T09:02:19.830Z,39.58
2023-05-21T09:03:19.869Z,43.53
2023-05-21T09:04:21.702Z,42.97
2023-05-21T09:05:19.800Z,45.72
2023-05-21T09:06:19.807Z,43.10
2023-05-21T09:07:19.800Z,44.50
2023-05-21T09:08:19.875Z,41.06
2023-05-21T09:09:19.874Z,32.11
2023-05-21T09:10:19.940Z,30.04
2023-05-21T09:11:19.937Z,25.48
2023-05-21T09:12:19.929Z,32.42
2023-05-21T09:13:19.969Z,36.27
2023-05-21T09:14:19.955Z,25.18
2023-05-21T09:15:19.994Z,0.00
2023-05-21T09:16:20.060Z,0.00
2023-05-21T09:17:20.102Z,0.00
2023-05-21T09:18:20.141Z,0.00
2023-05-21T09:19:20.249Z,0.00
2023-05-21T09:20:20.230Z,0.00
2023-05-21T09:21:20.209Z,0.00
2023-05-21T09:22:20.257Z,0.00
2023-05-21T09:23:20.265Z,0.00
2023-05-21T09:24:20.307Z,0.00
2023-05-21T09:25:20.328Z,0.00
2023-05-21T09:26:20.320Z,0.00
2023-05-21T09:27:20.356Z,0.00
2023-05-21T09:28:20.367Z,0.00
2023-05-21T09:29:20.449Z,0.00
2023-05-21T09:30:22.569Z,0.00
2023-05-21T09:31:20.529Z,0.00
2023-05-21T09:32:20.474Z,0.00
2023-05-21T09:33:20.444Z,0.00
2023-05-21T09:34:20.521Z,0.00
2023-05-21T09:35:20.450Z,0.00
2023-05-21T09:36:20.422Z,0.00
2023-05-21T09:38:21.455Z,0.00
2023-05-21T09:39:20.420Z,0.00
2023-05-21T09:40:20.413Z,0.00
2023-05-21T09:41:22.231Z,0.00
2023-05-21T09:42:20.418Z,0.00
2023-05-21T09:43:20.391Z,0.00
2023-05-21T09:44:20.406Z,0.00
2023-05-21T09:45:20.421Z,0.00
2023-05-21T09:46:20.444Z,0.00
2023-05-21T09:47:20.523Z,0.00
2023-05-21T09:48:20.386Z,2.59
2023-05-21T09:49:20.400Z,0.00
2023-05-21T09:50:20.443Z,4.32
2023-05-21T09:51:20.362Z,7.20
2023-05-21T09:52:20.361Z,6.44
2023-05-21T09:53:20.354Z,15.39
2023-05-21T09:54:20.369Z,18.27
2023-05-21T09:55:20.388Z,23.70
2023-05-21T09:56:20.419Z,22.71
2023-05-21T09:57:20.424Z,23.09
2023-05-21T09:58:20.463Z,18.86
2023-05-21T09:59:20.523Z,18.62
2023-05-21T10:00:20.545Z,20.89
2023-05-21T10:01:20.655Z,24.18
2023-05-21T10:02:20.678Z,25.46
2023-05-21T10:03:20.760Z,28.82
2023-05-21T10:04:20.737Z,27.07
2023-05-21T10:05:20.754Z,29.32
2023-05-21T10:06:20.818Z,29.59
2023-05-21T10:07:20.766Z,27.31
2023-05-21T10:08:20.805Z,29.13
2023-05-21T10:09:20.811Z,28.10
2023-05-21T10:10:20.892Z,33.27
2023-05-21T10:11:20.913Z,38.74
2023-05-21T10:12:20.933Z,30.16
2023-05-21T10:13:20.943Z,29.01
2023-05-21T10:14:20.997Z,29.83
2023-05-21T10:15:21.030Z,27.68
2023-05-21T10:16:21.110Z,27.94
2023-05-21T10:17:21.124Z,29.25
2023-05-21T10:18:21.069Z,28.72
2023-05-21T10:19:21.268Z,26.09
2023-05-21T10:20:21.121Z,27.74
2023-05-21T10:21:21.165Z,30.46
2023-05-21T10:22:21.198Z,32.63
2023-05-21T10:23:21.231Z,34.17
2023-05-21T10:24:21.232Z,32.83
2023-05-21T10:25:21.258Z,36.91
2023-05-21T10:26:21.284Z,36.31
2023-05-21T10:27:21.309Z,31.94
2023-05-21T10:28:21.352Z,32.96
2023-05-21T10:29:21.416Z,31.11
2023-05-21T10:30:21.424Z,29.84
2023-05-21T10:31:21.475Z,33.92
2023-05-21T10:32:21.638Z,36.57
2023-05-21T10:33:21.539Z,29.50
2023-05-21T10:34:21.553Z,25.78
2023-05-21T10:35:21.561Z,26.49
2023-05-21T10:36:21.593Z,25.03
2023-05-21T10:37:21.597Z,25.34
2023-05-21T10:38:21.622Z,26.60
2023-05-21T10:39:21.657Z,29.27
2023-05-21T10:40:21.697Z,31.48
2023-05-21T10:41:21.748Z,27.95
2023-05-21T10:42:21.748Z,28.16
2023-05-21T10:43:21.802Z,24.42
2023-05-21T10:44:21.831Z,24.84
2023-05-21T10:45:21.858Z,28.65
2023-05-21T10:46:22.039Z,27.34
2023-05-21T10:47:21.944Z,26.60
2023-05-21T10:48:22.026Z,23.48
2023-05-21T10:49:22.042Z,25.84
2023-05-21T10:50:22.066Z,25.00
2023-05-21T10:51:22.046Z,25.00
2023-05-21T10:52:22.094Z,27.41
2023-05-21T10:53:22.119Z,28.59
2023-05-21T10:54:22.196Z,23.83
2023-05-21T10:55:22.223Z,25.85
2023-05-21T10:56:22.197Z,27.94
2023-05-21T10:57:22.232Z,25.13
2023-05-21T10:58:22.267Z,25.44
2023-05-21T10:59:22.556Z,25.83
2023-05-21T11:00:22.326Z,29.10
2023-05-21T11:01:22.429Z,27.68
2023-05-21T11:02:22.428Z,26.43
2023-05-21T11:03:22.474Z,28.84
2023-05-21T11:04:22.391Z,32.46
2023-05-21T11:05:22.417Z,30.72
2023-05-21T11:06:22.486Z,26.77
2023-05-21T11:07:22.488Z,26.42
2023-05-21T11:08:22.605Z,28.28
2023-05-21T11:09:22.612Z,29.70
2023-05-21T11:10:22.628Z,28.94
2023-05-21T11:11:22.642Z,29.57
2023-05-21T11:12:22.648Z,29.34
2023-05-21T11:13:22.727Z,30.23
2023-05-21T11:14:22.759Z,29.00
2023-05-21T11:15:22.741Z,27.48
2023-05-21T11:16:22.808Z,25.28
2023-05-21T11:17:22.821Z,27.57
2023-05-21T11:18:22.835Z,31.96
2023-05-21T11:19:22.929Z,34.53
2023-05-21T11:20:22.875Z,33.34
2023-05-21T11:21:22.976Z,33.70
2023-05-21T11:22:22.962Z,31.50
2023-05-21T11:23:23.000Z,28.94
2023-05-21T11:24:23.048Z,29.20
2023-05-21T11:25:23.060Z,31.19
2023-05-21T11:26:23.084Z,29.86
2023-05-21T11:27:23.096Z,35.20
2023-05-21T11:28:23.147Z,36.46
2023-05-21T11:29:23.141Z,29.82
2023-05-21T11:30:23.158Z,26.78
2023-05-21T11:31:23.227Z,30.96
2023-05-21T11:32:23.293Z,34.99
2023-05-21T11:33:23.246Z,39.16
2023-05-21T11:34:23.250Z,46.98
2023-05-21T11:35:23.276Z,42.15
2023-05-21T11:36:23.341Z,37.81
2023-05-21T11:37:23.415Z,36.89
2023-05-21T11:38:23.405Z,39.59
2023-05-21T11:39:23.439Z,46.85
2023-05-21T11:40:23.456Z,46.22
2023-05-21T11:41:23.500Z,41.46
2023-05-21T11:42:23.538Z,39.09
2023-05-21T11:43:23.575Z,41.21
2023-05-21T11:44:23.624Z,39.33
2023-05-21T11:45:23.640Z,41.56
2023-05-21T11:46:23.739Z,41.11
2023-05-21T11:47:23.722Z,44.51
2023-05-21T11:48:26.574Z,41.50
2023-05-21T11:49:23.718Z,36.34
2023-05-21T11:50:23.731Z,36.70
2023-05-21T11:51:23.728Z,38.15
2023-05-21T11:52:23.694Z,40.60
2023-05-21T11:53:23.699Z,40.89
2023-05-21T11:54:23.719Z,33.96
2023-05-21T11:55:23.695Z,35.08
2023-05-21T11:56:23.660Z,33.98
2023-05-21T11:57:23.735Z,31.77
2023-05-21T11:58:23.700Z,29.45
2023-05-21T11:59:23.647Z,30.14
2023-05-21T12:00:23.687Z,30.56
2023-05-21T12:01:23.652Z,36.16
2023-05-21T12:02:23.716Z,36.12
2023-05-21T12:03:23.726Z,30.68
2023-05-21T12:04:23.601Z,29.10
2023-05-21T12:05:23.623Z,31.73
2023-05-21T12:06:23.737Z,33.14
2023-05-21T12:07:23.598Z,32.51
2023-05-21T12:08:23.620Z,36.54
2023-05-21T12:09:23.570Z,28.45
2023-05-21T12:10:23.617Z,28.52
2023-05-21T12:11:23.576Z,30.48
2023-05-21T12:12:23.563Z,34.47
2023-05-21T12:13:23.553Z,33.19
2023-05-21T12:14:23.583Z,36.25
2023-05-21T12:15:23.588Z,32.40
2023-05-21T12:16:23.568Z,36.69
2023-05-21T12:17:23.627Z,40.70
2023-05-21T12:18:23.534Z,43.97
2023-05-21T12:19:23.604Z,42.66
2023-05-21T12:20:23.548Z,44.27
2023-05-21T12:21:23.503Z,41.88
2023-05-21T12:22:23.540Z,41.54
2023-05-21T12:23:23.523Z,43.85
2023-05-21T12:24:23.524Z,41.99
2023-05-21T12:25:23.522Z,44.63
2023-05-21T12:26:23.514Z,43.50
2023-05-21T12:27:23.523Z,48.74
2023-05-21T12:28:23.485Z,48.70
2023-05-21T12:29:23.480Z,47.38
2023-05-21T12:30:23.483Z,48.19
2023-05-21T12:31:23.479Z,45.25
2023-05-21T12:32:23.474Z,42.44
2023-05-21T12:33:25.177Z,41.01
2023-05-21T12:34:23.421Z,41.84
2023-05-21T12:35:23.982Z,41.55
2023-05-21T12:36:23.472Z,44.71
2023-05-21T12:37:23.417Z,42.83
2023-05-21T12:38:23.432Z,45.63